Estación Meteorológica Peña el Pijo (Robertgarden) [ 01/30/23 15:16:30 CET ]

Fecha Hora Presion(HPa) Temp (°C) Humedad % Rocio (°C) Viento ( m/s) Direccion Lluvia 1Hora(mm) Lluvia 24H(mm) LLuvia Total(mm)
2012-Sep-19 01:01:13 1010.000 16.3 42 3.3         178.19
2012-Sep-19 02:01:17 1010.100 14.7 47 3.5         178.19
2012-Sep-19 03:01:47 1010.400 14.3 48 3.4         178.19
2012-Sep-19 04:01:47 1009.700 13.8 50 3.6         178.19
2012-Sep-19 05:10:06 1009.500 12.9 53 3.5         178.19
2012-Sep-19 06:03:16 1009.200 12.9 53 3.5         178.19
2012-Sep-19 07:01:14 1009.400 12.3 57 4.0         178.19
2012-Sep-19 08:01:16 1009.600 11.5 59 3.7         178.19
2012-Sep-19 09:01:18 1010.200 12.6 64 5.9         178.19
2012-Sep-19 10:01:20 1010.400 20.8 47 9.0         178.19
2012-Sep-19 11:01:16 1010.600 25.1 33 7.6         178.19
2012-Sep-19 12:01:16 1010.700 25.4 33 7.9         178.19
2012-Sep-19 13:01:18 1010.600 28.1 31 9.3         178.19
2012-Sep-19 14:01:16 1010.300 29.9 29 9.9 0.4 NE     178.19
2012-Sep-19 15:01:18 1009.900 30.6 27 9.3         178.19
2012-Sep-19 16:01:12 1009.500 29.1 30 9.8 2.6 ENE     178.19
2012-Sep-19 17:01:17 1009.500 25.9 40 11.3 0.6 E     178.19
2012-Sep-19 18:01:13 1009.600 24.6 48 12.9 2.5 ENE     178.19
2012-Sep-19 19:01:11 1010.200 23.3 55 13.7         178.19
2012-Sep-19 20:01:18 1010.700 21.8 63 14.4 1.7 E     178.19
2012-Sep-19 21:01:12 1011.400 20.1 68 14.0         178.19
2012-Sep-19 22:01:18 1012.200 19.2 73 14.2         178.19
2012-Sep-19 23:01:16 1012.700 18.4 76 14.1         178.19

Temperatura Máxima:30°    Temperatura Mínima:11°
Presión Máxima:1012.700 Hpa    Presión Mínima:1009.200 Hpa


Volver